Time;durP1;ratioP1;P1;durP2;ratioP2;P2;SDS_P1;SDS_P2;PMS_P1;PMS_P2;Temp;Humidity;BMP_temperature;BMP_pressure;BME280_temperature;BME280_humidity;BME280_pressure;Samples;Min_cycle;Max_cycle;Signal;HPM_P1;HPM_P2
2021/12/29 00:01:02;;;;;;;;;;;;;;;19.56;48.16;100265.00;5036674;28;20376;-83
2021/12/29 00:03:29;;;;;;;;;;;;;;;19.56;48.12;100250.72;5036606;28;19921;-83
2021/12/29 00:05:56;;;;;;;;;;;;;;;19.56;48.16;100251.56;5036541;28;19925;-83
2021/12/29 00:08:23;;;;;;;;;;;;;;;19.58;48.18;100270.25;5034898;28;19925;-83
2021/12/29 00:10:55;;;;;;;;;;;;;;;19.58;48.14;100270.25;5067893;28;20301;-84
2021/12/29 00:13:25;;;;;;;;;;;;;;;19.59;47.90;100266.56;5036994;28;19925;-84
2021/12/29 00:15:57;;;;;;;;;;;;;;;19.59;47.80;100270.09;5036276;28;19921;-84
2021/12/29 00:18:28;;;;;;;;;;;;;;;19.61;47.77;100264.59;5034948;28;19921;-83
2021/12/29 00:20:56;;;;;;;;;;;;;;;19.61;47.74;100260.09;5035262;28;19925;-84
2021/12/29 00:23:23;;;;;;;;;;;;;;;19.63;47.54;100273.34;5036009;28;19928;-84
2021/12/29 00:25:51;;;;;;;;;;;;;;;19.64;47.46;100270.50;5035621;28;19921;-84
2021/12/29 00:28:18;;;;;;;;;;;;;;;19.65;47.54;100282.13;5035521;28;20395;-84
2021/12/29 00:30:46;;;;;;;;;;;;;;;19.65;47.39;100277.59;5034109;28;19928;-84
2021/12/29 00:33:31;;;;;;;;;;;;;;;19.66;47.45;100273.91;5043420;28;19920;-84
2021/12/29 00:36:17;;;;;;;;;;;;;;;19.68;47.50;100263.84;5043128;28;19921;-83
2021/12/29 00:39:02;;;;;;;;;;;;;;;19.69;47.20;100273.63;5043247;28;19921;-83
2021/12/29 00:42:02;;;;;;;;;;;;;;;19.70;47.14;100264.56;4994756;28;19932;-83
2021/12/29 00:44:50;;;;;;;;;;;;;;;19.73;47.14;100258.06;4993921;28;19921;-83
2021/12/29 00:47:18;;;;;;;;;;;;;;;19.73;47.22;100258.91;4994293;28;19922;-82
2021/12/29 00:49:46;;;;;;;;;;;;;;;19.74;47.27;100270.50;4940608;29;19930;-83
2021/12/29 00:52:14;;;;;;;;;;;;;;;19.74;47.06;100279.38;4955951;29;19922;-83
2021/12/29 00:54:42;;;;;;;;;;;;;;;19.76;47.10;100292.66;4955712;29;19922;-84
2021/12/29 00:57:10;;;;;;;;;;;;;;;19.77;46.97;100297.06;4955290;29;19938;-84
2021/12/29 00:59:37;;;;;;;;;;;;;;;19.78;47.07;100300.59;4973919;28;19941;-83
2021/12/29 01:02:04;;;;;;;;;;;;;;;19.79;47.01;100305.81;4976671;28;19965;-84
2021/12/29 01:04:32;;;;;;;;;;;;;;;19.79;47.12;100303.13;4974707;28;19929;-84
2021/12/29 01:07:00;;;;;;;;;;;;;;;19.81;47.14;100308.31;4974433;28;19922;-83
2021/12/29 01:09:27;;;;;;;;;;;;;;;19.80;47.12;100306.66;4974298;28;19925;-83
2021/12/29 01:11:56;;;;;;;;;;;;;;;19.80;46.99;100294.06;4973349;28;19926;-83
2021/12/29 01:14:26;;;;;;;;;;;;;;;19.80;46.88;100287.84;4973979;28;19929;-83
2021/12/29 01:16:53;;;;;;;;;;;;;;;19.81;47.00;100289.53;4979229;28;19926;-83
2021/12/29 01:19:23;;;;;;;;;;;;;;;19.81;46.82;100293.09;5015433;28;19921;-83
2021/12/29 01:21:52;;;;;;;;;;;;;;;19.82;46.83;100293.94;5015120;28;19925;-83
2021/12/29 01:24:21;;;;;;;;;;;;;;;19.81;46.87;100293.09;5015048;28;19929;-83
2021/12/29 01:26:49;;;;;;;;;;;;;;;19.82;46.82;100296.63;5015222;28;19921;-83
2021/12/29 01:29:16;;;;;;;;;;;;;;;19.81;46.78;100300.28;5015101;28;19944;-83
2021/12/29 01:31:44;;;;;;;;;;;;;;;19.82;46.71;100305.50;5015115;28;20316;-83
2021/12/29 01:34:12;;;;;;;;;;;;;;;19.80;46.70;100302.13;5015917;28;19928;-83
2021/12/29 01:36:40;;;;;;;;;;;;;;;19.81;46.62;100285.03;5015405;28;20395;-83
2021/12/29 01:39:09;;;;;;;;;;;;;;;19.81;46.59;100286.84;5015568;28;19929;-83
2021/12/29 01:41:37;;;;;;;;;;;;;;;19.82;46.54;100281.34;5015062;28;19955;-83
2021/12/29 01:44:05;;;;;;;;;;;;;;;19.82;46.49;100293.94;5014255;28;20396;-83
2021/12/29 01:46:32;;;;;;;;;;;;;;;19.81;46.52;100294.91;5014573;28;20257;-83
2021/12/29 01:48:59;;;;;;;;;;;;;;;19.81;46.48;100294.91;5014497;28;19921;-83
2021/12/29 01:51:26;;;;;;;;;;;;;;;19.81;46.31;100298.44;5014832;28;19925;-83
2021/12/29 01:54:14;;;;;;;;;;;;;;;19.81;46.41;100297.59;5015258;28;19921;-83
2021/12/29 01:56:43;;;;;;;;;;;;;;;19.79;46.40;100297.75;5014826;28;20373;-83
2021/12/29 01:59:10;;;;;;;;;;;;;;;19.78;46.48;100305.97;5016269;28;19921;-83
2021/12/29 02:01:38;;;;;;;;;;;;;;;19.76;46.53;100296.19;5034152;28;19921;-83
2021/12/29 02:04:05;;;;;;;;;;;;;;;19.75;46.42;100289.13;5034436;28;19928;-83
2021/12/29 02:06:32;;;;;;;;;;;;;;;19.74;46.50;100292.81;5016666;28;19921;-83
2021/12/29 02:08:59;;;;;;;;;;;;;;;19.73;46.37;100303.72;5033910;28;20372;-83
2021/12/29 02:11:30;;;;;;;;;;;;;;;19.72;46.33;100302.84;5015801;28;19932;-83
2021/12/29 02:13:58;;;;;;;;;;;;;;;19.70;46.38;100302.16;5034006;28;20368;-84
2021/12/29 02:16:26;;;;;;;;;;;;;;;19.70;46.49;100294.09;5034262;28;19921;-83
2021/12/29 02:18:54;;;;;;;;;;;;;;;19.69;46.44;100297.78;5034341;28;19921;-83
2021/12/29 02:21:23;;;;;;;;;;;;;;;19.69;46.34;100299.63;5033932;28;19928;-83
2021/12/29 02:26:53;;;;;;;;;;;;;;;19.68;46.13;100292.53;5011358;28;20381;-81
2021/12/29 02:29:20;;;;;;;;;;;;;;;19.68;46.05;100296.06;5011700;28;20337;-81
2021/12/29 02:31:48;;;;;;;;;;;;;;;19.70;46.09;100304.00;5011832;28;19921;-82
2021/12/29 02:34:15;;;;;;;;;;;;;;;19.69;46.15;100305.84;4995127;28;19933;-82
2021/12/29 02:36:44;;;;;;;;;;;;;;;19.70;46.16;100298.63;5012058;28;19937;-82
2021/12/29 02:39:19;;;;;;;;;;;;;;;19.69;46.18;100289.72;5011447;28;19932;-82
2021/12/29 02:41:50;;;;;;;;;;;;;;;19.70;46.15;100290.56;5011417;28;20435;-82
2021/12/29 02:44:24;;;;;;;;;;;;;;;19.72;46.12;100291.25;5014672;28;19925;-82
2021/12/29 02:46:51;;;;;;;;;;;;;;;19.70;46.20;100286.06;4998692;28;20405;-81
2021/12/29 02:49:18;;;;;;;;;;;;;;;19.70;46.22;100286.06;5015517;28;19929;-81
2021/12/29 02:51:47;;;;;;;;;;;;;;;19.70;46.04;100288.72;5016014;28;19921;-81
2021/12/29 02:54:16;;;;;;;;;;;;;;;19.69;46.15;100284.38;5015553;28;19928;-81
2021/12/29 02:56:44;;;;;;;;;;;;;;;19.70;46.04;100287.88;5015266;28;20017;-80
2021/12/29 02:59:12;;;;;;;;;;;;;;;19.69;46.10;100288.88;5015138;28;19929;-81
2021/12/29 03:01:39;;;;;;;;;;;;;;;19.68;46.09;100284.50;5031656;28;19920;-81
2021/12/29 03:04:07;;;;;;;;;;;;;;;19.68;46.17;100281.81;5037007;28;19921;-82
2021/12/29 03:06:34;;;;;;;;;;;;;;;19.66;46.18;100279.28;5037028;28;19920;-82
2021/12/29 03:09:04;;;;;;;;;;;;;;;19.68;46.05;100301.44;5037605;28;19921;-83
2021/12/29 03:11:31;;;;;;;;;;;;;;;19.67;46.12;100294.38;5020275;28;19921;-82
2021/12/29 03:13:58;;;;;;;;;;;;;;;19.67;46.11;100290.88;5037264;28;20016;-82
2021/12/29 03:16:26;;;;;;;;;;;;;;;19.66;46.17;100287.34;5037262;28;20392;-84
2021/12/29 03:18:53;;;;;;;;;;;;;;;19.66;46.10;100287.34;5037699;28;20293;-84
2021/12/29 03:21:20;;;;;;;;;;;;;;;19.66;46.14;100287.34;5037363;28;19929;-83
2021/12/29 03:23:49;;;;;;;;;;;;;;;19.65;46.26;100280.28;5037403;28;19932;-83
2021/12/29 03:26:16;;;;;;;;;;;;;;;19.65;46.76;100284.81;5037333;28;20285;-84
2021/12/29 03:28:44;;;;;;;;;;;;;;;19.64;46.99;100283.94;5037708;28;19921;-84
2021/12/29 03:31:14;;;;;;;;;;;;;;;19.63;47.30;100300.22;5020610;28;19921;-84
2021/12/29 03:33:43;;;;;;;;;;;;;;;19.63;46.82;100294.84;5019485;28;19921;-84
2021/12/29 03:36:11;;;;;;;;;;;;;;;19.62;46.98;100293.16;5037445;28;19921;-84
2021/12/29 03:38:39;;;;;;;;;;;;;;;19.61;47.03;100300.38;5019797;28;19921;-83
2021/12/29 03:41:09;;;;;;;;;;;;;;;19.60;47.05;100295.94;5037461;28;19944;-83
2021/12/29 03:43:36;;;;;;;;;;;;;;;19.60;46.99;100282.50;5036666;28;19928;-84
2021/12/29 03:46:05;;;;;;;;;;;;;;;19.59;47.13;100279.97;5019575;28;19921;-83
2021/12/29 03:48:32;;;;;;;;;;;;;;;19.58;46.95;100281.81;5018205;28;19928;-83
2021/12/29 03:51:00;;;;;;;;;;;;;;;19.58;46.95;100276.44;5036952;28;19928;-82
2021/12/29 03:53:27;;;;;;;;;;;;;;;19.58;46.91;100272.94;5036234;28;19925;-82
2021/12/29 03:55:55;;;;;;;;;;;;;;;19.57;46.97;100258.66;5035515;28;19921;-82
2021/12/29 03:58:24;;;;;;;;;;;;;;;19.57;46.78;100255.09;5036578;28;19928;-82
2021/12/29 04:00:52;;;;;;;;;;;;;;;19.57;46.72;100268.53;5036584;28;19928;-83
2021/12/29 04:03:19;;;;;;;;;;;;;;;19.57;46.80;100274.78;5034973;28;19921;-83
2021/12/29 04:05:47;;;;;;;;;;;;;;;19.56;46.72;100258.78;5036677;28;20101;-83
2021/12/29 04:08:14;;;;;;;;;;;;;;;19.56;46.75;100269.53;5036048;28;19921;-84
2021/12/29 04:10:41;;;;;;;;;;;;;;;19.55;46.71;100274.06;5035806;28;19928;-84
2021/12/29 04:13:09;;;;;;;;;;;;;;;19.56;46.60;100285.63;5037113;28;19928;-84
2021/12/29 04:15:37;;;;;;;;;;;;;;;19.56;46.74;100304.44;5037954;28;19921;-84
2021/12/29 04:18:14;;;;;;;;;;;;;;;19.57;46.63;100307.00;5035338;28;19921;-84
2021/12/29 04:20:57;;;;;;;;;;;;;;;19.56;46.78;100310.63;5037581;28;19921;-84
2021/12/29 04:23:27;;;;;;;;;;;;;;;19.56;46.66;100310.63;5037492;28;20346;-84
2021/12/29 04:25:55;;;;;;;;;;;;;;;19.55;46.66;100327.75;5037240;28;20278;-83
2021/12/29 04:28:23;;;;;;;;;;;;;;;19.55;46.83;100335.81;5038639;28;19921;-83
2021/12/29 04:30:52;;;;;;;;;;;;;;;19.56;46.67;100339.34;5038604;28;19921;-83
2021/12/29 04:33:20;;;;;;;;;;;;;;;19.56;46.70;100342.88;5036051;28;20285;-82
2021/12/29 04:35:47;;;;;;;;;;;;;;;19.54;46.76;100336.81;5034844;28;19921;-82
2021/12/29 04:38:14;;;;;;;;;;;;;;;19.54;46.65;100344.88;5035951;28;19936;-81
2021/12/29 04:40:42;;;;;;;;;;;;;;;19.55;46.45;100333.13;5036019;28;19928;-84
2021/12/29 04:43:09;;;;;;;;;;;;;;;19.55;46.35;100327.75;5035596;28;19921;-83
2021/12/29 04:45:36;;;;;;;;;;;;;;;19.55;46.44;100318.84;5035345;28;19921;-83
2021/12/29 04:48:11;;;;;;;;;;;;;;;19.55;46.31;100317.00;5035399;28;19928;-83
2021/12/29 04:50:49;;;;;;;;;;;;;;;19.54;46.11;100328.75;5035708;28;19921;-83
2021/12/29 04:53:17;;;;;;;;;;;;;;;19.53;46.26;100324.38;5035654;28;19930;-83
2021/12/29 04:55:47;;;;;;;;;;;;;;;19.53;46.29;100316.31;5033559;28;20262;-83
2021/12/29 04:58:15;;;;;;;;;;;;;;;19.52;46.22;100304.72;5067226;28;19928;-83
2021/12/29 05:00:42;;;;;;;;;;;;;;;19.53;46.12;100319.00;5033535;28;19921;-83
2021/12/29 05:03:09;;;;;;;;;;;;;;;19.52;46.02;100322.66;5034471;28;19921;-82
2021/12/29 05:10:51;;;;;;;;;;;;;;;19.52;46.13;100328.88;5035493;28;20365;-83
2021/12/29 05:13:18;;;;;;;;;;;;;;;19.52;45.81;100322.66;5035161;28;19920;-84
2021/12/29 05:15:46;;;;;;;;;;;;;;;19.51;45.58;100313.75;5016683;28;19936;-84
2021/12/29 05:18:13;;;;;;;;;;;;;;;19.51;45.77;100313.75;5034658;28;19984;-83
2021/12/29 05:20:41;;;;;;;;;;;;;;;19.52;45.93;100330.72;5049575;28;20296;-85
2021/12/29 05:23:08;;;;;;;;;;;;;;;19.51;46.02;100324.50;5035123;28;19925;-84
2021/12/29 05:25:35;;;;;;;;;;;;;;;19.51;45.83;100320.97;5035680;28;19921;-84
2021/12/29 05:28:03;;;;;;;;;;;;;;;19.51;45.79;100335.25;5035401;28;19921;-85
2021/12/29 05:30:30;;;;;;;;;;;;;;;19.51;45.93;100332.56;5017969;28;19928;-84
2021/12/29 05:32:57;;;;;;;;;;;;;;;19.51;46.07;100334.41;5034725;28;19921;-85
2021/12/29 05:35:26;;;;;;;;;;;;;;;19.51;46.08;100342.47;5017368;28;20403;-84
2021/12/29 05:37:54;;;;;;;;;;;;;;;19.50;45.96;100346.97;5017399;28;19921;-85
2021/12/29 05:40:21;;;;;;;;;;;;;;;19.50;45.91;100354.19;5034587;28;19928;-85
2021/12/29 05:42:48;;;;;;;;;;;;;;;19.50;46.10;100348.81;5034172;28;19925;-85
2021/12/29 05:45:15;;;;;;;;;;;;;;;19.48;46.13;100354.31;5015936;28;19921;-85
2021/12/29 05:47:43;;;;;;;;;;;;;;;19.49;46.01;100347.13;5033797;28;19925;-84
2021/12/29 05:50:13;;;;;;;;;;;;;;;19.48;46.07;100345.41;5035033;28;19921;-85
2021/12/29 05:52:40;;;;;;;;;;;;;;;19.48;46.01;100342.75;5017535;28;19921;-84
2021/12/29 05:55:08;;;;;;;;;;;;;;;19.48;45.83;100345.41;5035115;28;20403;-83
2021/12/29 05:57:35;;;;;;;;;;;;;;;19.46;46.06;100345.56;5034633;28;19921;-84
2021/12/29 06:00:06;;;;;;;;;;;;;;;19.47;46.10;100354.47;5034421;28;19928;-84
2021/12/29 06:02:33;;;;;;;;;;;;;;;19.47;46.12;100351.78;5034467;28;19921;-84
2021/12/29 06:05:01;;;;;;;;;;;;;;;19.46;46.09;100356.31;5033694;28;20280;-84
2021/12/29 06:07:28;;;;;;;;;;;;;;;19.46;46.04;100364.38;5034171;28;19932;-83
2021/12/29 06:09:55;;;;;;;;;;;;;;;19.46;46.04;100364.38;5034255;28;19928;-83
2021/12/29 06:12:22;;;;;;;;;;;;;;;19.47;46.13;100370.59;5049712;28;20392;-83
2021/12/29 06:14:49;;;;;;;;;;;;;;;19.47;46.01;100365.22;5034269;28;19921;-83
2021/12/29 06:17:17;;;;;;;;;;;;;;;19.46;46.02;100347.41;5033701;28;20376;-83
2021/12/29 06:19:44;;;;;;;;;;;;;;;19.46;45.95;100344.75;5034051;28;19921;-83
2021/12/29 06:22:11;;;;;;;;;;;;;;;19.45;46.09;100351.94;5034408;28;19928;-83
2021/12/29 06:24:42;;;;;;;;;;;;;;;19.46;46.01;100363.53;5049842;28;19928;-83
2021/12/29 06:27:09;;;;;;;;;;;;;;;19.47;46.06;100375.94;5034370;28;19921;-84
2021/12/29 06:29:36;;;;;;;;;;;;;;;19.45;45.96;100373.44;5049034;28;19928;-82
2021/12/29 06:32:04;;;;;;;;;;;;;;;19.46;45.96;100368.91;5016409;28;20345;-82
2021/12/29 06:34:31;;;;;;;;;;;;;;;19.47;45.95;100386.69;5033874;28;20364;-82
2021/12/29 06:37:03;;;;;;;;;;;;;;;19.47;45.87;100394.75;5034212;28;19928;-89
2021/12/29 06:39:30;;;;;;;;;;;;;;;19.47;45.73;100379.47;5015863;28;19921;-84
2021/12/29 06:41:57;;;;;;;;;;;;;;;19.45;46.00;100370.75;5034084;28;19928;-84
2021/12/29 06:44:25;;;;;;;;;;;;;;;19.45;46.15;100380.63;5033693;28;20288;-85
2021/12/29 06:46:52;;;;;;;;;;;;;;;19.44;46.10;100395.03;5033697;28;20396;-84
2021/12/29 06:49:20;;;;;;;;;;;;;;;19.43;45.96;100396.03;5032754;28;19921;-85
2021/12/29 06:51:49;;;;;;;;;;;;;;;19.41;46.24;100398.88;5016961;28;19925;-85
2021/12/29 06:54:16;;;;;;;;;;;;;;;19.41;46.21;100396.19;5016680;28;19921;-84
2021/12/29 06:56:43;;;;;;;;;;;;;;;19.42;46.42;100405.06;5033204;28;20261;-85
2021/12/29 06:59:10;;;;;;;;;;;;;;;19.40;46.09;100397.16;5033611;28;19921;-85
2021/12/29 07:01:37;;;;;;;;;;;;;;;19.40;46.27;100397.16;5033808;28;19929;-85
2021/12/29 07:04:06;;;;;;;;;;;;;;;19.40;46.15;100404.34;5032407;28;20023;-85
2021/12/29 07:06:33;;;;;;;;;;;;;;;19.39;46.19;100416.94;5018440;28;20283;-85
2021/12/29 07:09:00;;;;;;;;;;;;;;;19.40;46.11;100415.94;5016554;28;19928;-85
2021/12/29 07:11:27;;;;;;;;;;;;;;;19.40;46.04;100417.78;5034413;28;19921;-86
2021/12/29 07:13:57;;;;;;;;;;;;;;;19.37;46.04;100418.94;5050354;28;20430;-86
2021/12/29 07:16:24;;;;;;;;;;;;;;;19.37;46.02;100413.56;5049330;28;19992;-86
2021/12/29 07:18:52;;;;;;;;;;;;;;;19.39;45.97;100426.81;5034972;28;19921;-86
2021/12/29 07:21:19;;;;;;;;;;;;;;;19.37;45.99;100428.81;5034530;28;20412;-87
2021/12/29 07:23:46;;;;;;;;;;;;;;;19.39;45.77;100434.88;5034719;28;19921;-87
2021/12/29 07:26:13;;;;;;;;;;;;;;;19.38;45.84;100442.09;5032373;28;19929;-86
2021/12/29 07:28:40;;;;;;;;;;;;;;;19.37;45.87;100440.41;5035049;28;20288;-86
2021/12/29 07:31:08;;;;;;;;;;;;;;;19.38;45.76;100446.63;5052795;28;19921;-86
2021/12/29 07:33:35;;;;;;;;;;;;;;;19.36;45.66;100454.78;5038558;28;19944;-86
2021/12/29 07:36:02;;;;;;;;;;;;;;;19.37;45.85;100450.28;5053458;28;19948;-86
2021/12/29 07:38:31;;;;;;;;;;;;;;;19.36;45.76;100456.63;5052376;28;19928;-86
2021/12/29 07:40:59;;;;;;;;;;;;;;;19.36;45.69;100459.31;5036760;28;20289;-86
2021/12/29 07:43:26;;;;;;;;;;;;;;;19.35;45.81;100463.84;5037776;28;19921;-85
2021/12/29 07:45:54;;;;;;;;;;;;;;;19.34;45.82;100467.53;5037104;28;19920;-84
2021/12/29 07:48:27;;;;;;;;;;;;;;;19.34;45.81;100453.25;5036670;28;19935;-84
2021/12/29 07:50:55;;;;;;;;;;;;;;;19.34;45.81;100450.56;5019094;28;19921;-84
2021/12/29 07:53:22;;;;;;;;;;;;;;;19.34;45.82;100456.78;5036914;28;20399;-85
2021/12/29 07:55:49;;;;;;;;;;;;;;;19.34;45.84;100472.03;5036212;28;19929;-86
2021/12/29 07:58:16;;;;;;;;;;;;;;;19.33;45.84;100479.25;5036092;28;19921;-86
2021/12/29 08:00:43;;;;;;;;;;;;;;;19.34;45.81;100469.34;5036891;28;19925;-86
2021/12/29 08:03:12;;;;;;;;;;;;;;;19.32;45.86;100472.16;5036120;28;19921;-85
2021/12/29 08:05:40;;;;;;;;;;;;;;;19.34;45.93;100480.09;5020573;28;19925;-86
2021/12/29 08:08:08;;;;;;;;;;;;;;;19.34;45.89;100485.47;5035693;28;19932;-86
2021/12/29 08:10:35;;;;;;;;;;;;;;;19.33;45.90;100479.25;5036775;28;19944;-86
2021/12/29 08:13:04;;;;;;;;;;;;;;;19.33;45.77;100467.66;5036706;28;20300;-86
2021/12/29 08:15:32;;;;;;;;;;;;;;;19.33;45.73;100470.34;5036809;28;20368;-86
2021/12/29 08:18:02;;;;;;;;;;;;;;;19.32;45.77;100474.00;5037243;28;19932;-86
2021/12/29 08:20:29;;;;;;;;;;;;;;;19.33;45.69;100475.72;5018289;28;19928;-85
2021/12/29 08:22:56;;;;;;;;;;;;;;;19.33;45.70;100491.81;5036465;28;19921;-84
2021/12/29 08:25:23;;;;;;;;;;;;;;;19.31;45.68;100500.00;5036299;28;19921;-82
2021/12/29 08:27:51;;;;;;;;;;;;;;;19.32;45.68;100490.94;5050988;28;20377;-84
2021/12/29 08:30:18;;;;;;;;;;;;;;;19.32;45.84;100500.84;5035556;28;20280;-84
2021/12/29 08:32:45;;;;;;;;;;;;;;;19.31;45.65;100497.31;5036340;28;19921;-86
2021/12/29 08:35:12;;;;;;;;;;;;;;;19.29;45.70;100495.78;5037105;28;19921;-85
2021/12/29 08:37:40;;;;;;;;;;;;;;;19.29;45.70;100510.03;5035914;28;20300;-84
2021/12/29 08:40:10;;;;;;;;;;;;;;;19.28;45.93;100513.69;5036057;28;19921;-85
2021/12/29 08:42:38;;;;;;;;;;;;;;;19.27;45.86;100515.53;5017824;28;19921;-85
2021/12/29 08:45:06;;;;;;;;;;;;;;;19.27;45.86;100515.53;5034387;28;19928;-85
2021/12/29 08:47:34;;;;;;;;;;;;;;;19.27;46.06;100512.84;5036980;28;19928;-85
2021/12/29 08:50:03;;;;;;;;;;;;;;;19.27;45.90;100503.94;5036096;28;20384;-83
2021/12/29 08:52:30;;;;;;;;;;;;;;;19.25;46.08;100517.53;5036551;28;19928;-83
2021/12/29 08:54:57;;;;;;;;;;;;;;;19.25;45.99;100522.88;5052478;28;19921;-83
2021/12/29 08:57:24;;;;;;;;;;;;;;;19.25;46.32;100525.56;5038319;28;19921;-84
2021/12/29 08:59:52;;;;;;;;;;;;;;;19.25;46.40;100522.03;5037945;28;19924;-85
2021/12/29 09:02:20;;;;;;;;;;;;;;;19.24;46.32;100531.06;5038121;28;19921;-83
2021/12/29 09:04:47;;;;;;;;;;;;;;;19.24;46.39;100536.44;5018532;28;19928;-84
2021/12/29 09:07:14;;;;;;;;;;;;;;;19.24;46.82;100547.16;5035904;28;19932;-87
2021/12/29 09:09:41;;;;;;;;;;;;;;;19.22;46.79;100533.03;5035770;28;19924;-84
2021/12/29 09:12:09;;;;;;;;;;;;;;;19.20;46.83;100543.94;5017893;28;19928;-84
2021/12/29 09:14:36;;;;;;;;;;;;;;;19.21;46.31;100534.88;5035739;28;19921;-84
2021/12/29 09:17:03;;;;;;;;;;;;;;;19.22;46.35;100531.22;5034809;28;19921;-82
2021/12/29 09:19:34;;;;;;;;;;;;;;;19.21;46.33;100524.16;5034602;28;19920;-82
2021/12/29 09:22:01;;;;;;;;;;;;;;;19.22;46.22;100528.53;5017435;28;19925;-82
2021/12/29 09:24:28;;;;;;;;;;;;;;;19.21;46.03;100532.19;5034337;28;19921;-86
2021/12/29 09:26:55;;;;;;;;;;;;;;;19.20;45.96;100538.56;5034235;28;19920;-85
2021/12/29 09:29:22;;;;;;;;;;;;;;;19.21;45.58;100545.63;5034111;28;19928;-85
2021/12/29 09:31:50;;;;;;;;;;;;;;;19.21;46.12;100537.56;5016792;28;19921;-84
2021/12/29 09:34:17;;;;;;;;;;;;;;;19.20;47.02;100546.63;5017009;28;20292;-88
2021/12/29 09:36:45;;;;;;;;;;;;;;;19.19;46.10;100544.03;5036102;28;19921;-92
2021/12/29 09:39:12;;;;;;;;;;;;;;;19.16;46.21;100544.31;5001248;28;19921;-87
2021/12/29 09:41:39;;;;;;;;;;;;;;;19.16;45.27;100550.56;5017471;28;19921;-85
2021/12/29 09:44:09;;;;;;;;;;;;;;;19.14;44.06;100544.47;5016523;28;19944;-86
2021/12/29 09:46:37;;;;;;;;;;;;;;;19.13;44.04;100545.47;5034080;28;19921;-85
2021/12/29 09:49:05;;;;;;;;;;;;;;;19.12;44.28;100545.56;5033859;28;19928;-85
2021/12/29 09:51:32;;;;;;;;;;;;;;;19.11;43.21;100543.88;5034205;28;20292;-85
2021/12/29 09:53:59;;;;;;;;;;;;;;;19.10;42.46;100544.88;5034102;28;19921;-88
2021/12/29 09:56:27;;;;;;;;;;;;;;;19.07;42.27;100546.00;5034345;28;19921;-81
2021/12/29 09:58:55;;;;;;;;;;;;;;;19.07;43.36;100546.00;5034655;28;19921;-81
2021/12/29 10:01:22;;;;;;;;;;;;;;;19.07;43.42;100556.72;5034608;28;20368;-83
2021/12/29 10:03:49;;;;;;;;;;;;;;;19.06;43.40;100548.81;5017841;28;19921;-82
2021/12/29 10:06:17;;;;;;;;;;;;;;;19.08;42.94;100546.84;5034819;28;19928;-81
2021/12/29 10:08:47;;;;;;;;;;;;;;;19.06;42.51;100538.09;5034098;28;19921;-81
2021/12/29 10:11:18;;;;;;;;;;;;;;;19.05;41.90;100545.28;5033858;28;19928;-81
2021/12/29 10:13:47;;;;;;;;;;;;;;;19.05;42.40;100537.25;5034544;28;19928;-81
2021/12/29 10:16:18;;;;;;;;;;;;;;;19.04;42.05;100538.25;5034058;28;19928;-80
2021/12/29 10:18:48;;;;;;;;;;;;;;;19.03;41.98;100533.84;5034757;28;19928;-81
2021/12/29 10:21:22;;;;;;;;;;;;;;;19.04;41.85;100540.94;5034664;28;19928;-80
2021/12/29 10:23:51;;;;;;;;;;;;;;;19.02;41.94;100533.00;5034360;28;19925;-81
2021/12/29 10:26:40;;;;;;;;;;;;;;;19.03;41.97;100541.88;5032807;28;20357;-82
2021/12/29 10:29:09;;;;;;;;;;;;;;;19.02;41.83;100542.88;5034045;28;20273;-80
2021/12/29 10:31:38;;;;;;;;;;;;;;;18.99;40.75;100538.63;5033993;28;19921;-80
2021/12/29 10:34:07;;;;;;;;;;;;;;;18.83;39.80;100542.81;5032730;28;19921;-82
2021/12/29 10:36:39;;;;;;;;;;;;;;;18.63;40.62;100540.00;5037179;28;19921;-83
2021/12/29 10:39:09;;;;;;;;;;;;;;;18.47;41.40;100548.56;5035577;28;19928;-82
2021/12/29 10:41:48;;;;;;;;;;;;;;;18.43;41.76;100541.78;5036435;28;19928;-82
2021/12/29 10:44:16;;;;;;;;;;;;;;;18.42;41.80;100534.69;5034222;28;19928;-84
2021/12/29 10:46:44;;;;;;;;;;;;;;;18.28;42.19;100538.56;5017400;28;20291;-81
2021/12/29 10:49:12;;;;;;;;;;;;;;;18.35;42.60;100536.22;5033391;28;19925;-82
2021/12/29 10:51:42;;;;;;;;;;;;;;;18.44;43.51;100531.91;5033576;28;20292;-82
2021/12/29 10:54:14;;;;;;;;;;;;;;;18.52;43.11;100527.56;5033381;28;19921;-82
2021/12/29 10:56:44;;;;;;;;;;;;;;;18.58;43.00;100533.38;5033071;28;20274;-83
2021/12/29 10:59:23;;;;;;;;;;;;;;;18.62;43.12;100532.97;5015864;28;19928;-85
2021/12/29 11:01:51;;;;;;;;;;;;;;;18.67;42.97;100528.03;5033718;28;19943;-83
2021/12/29 11:04:19;;;;;;;;;;;;;;;18.71;42.95;100526.81;5034724;28;19928;-84
2021/12/29 11:06:50;;;;;;;;;;;;;;;18.76;43.18;100529.97;5021008;28;19923;-82
2021/12/29 11:09:25;;;;;;;;;;;;;;;18.78;43.23;100519.94;5027180;28;19921;-81
2021/12/29 11:11:52;;;;;;;;;;;;;;;18.82;43.22;100525.03;5021500;28;19932;-81
2021/12/29 11:14:23;;;;;;;;;;;;;;;18.84;43.06;100515.88;5037390;28;20260;-82
2021/12/29 11:17:00;;;;;;;;;;;;;;;18.87;42.91;100518.25;5019274;28;19921;-81
2021/12/29 11:19:27;;;;;;;;;;;;;;;18.89;43.16;100520.81;5037306;28;19930;-81
2021/12/29 11:22:04;;;;;;;;;;;;;;;18.91;43.35;100513.47;5038113;28;19944;-81
2021/12/29 11:24:31;;;;;;;;;;;;;;;18.93;43.64;100512.38;5038812;28;19921;-81
2021/12/29 11:26:58;;;;;;;;;;;;;;;18.94;43.51;100508.69;5037912;28;19944;-81
2021/12/29 11:29:25;;;;;;;;;;;;;;;18.95;45.10;100514.91;5036786;28;19928;-81
2021/12/29 11:32:01;;;;;;;;;;;;;;;18.96;45.41;100520.16;5037336;28;19929;-85
2021/12/29 11:34:28;;;;;;;;;;;;;;;18.97;45.71;100521.00;5038352;28;19931;-85
2021/12/29 11:37:14;;;;;;;;;;;;;;;18.97;45.64;100524.50;5018979;28;19936;-81
2021/12/29 11:39:42;;;;;;;;;;;;;;;18.97;44.54;100521.00;5036357;28;19921;-82
2021/12/29 11:42:10;;;;;;;;;;;;;;;18.98;45.53;100512.78;5036726;28;19921;-81
2021/12/29 11:44:37;;;;;;;;;;;;;;;18.99;45.89;100513.63;5037172;28;19928;-81
2021/12/29 11:47:06;;;;;;;;;;;;;;;18.98;46.09;100503.91;5036544;28;19921;-80
2021/12/29 11:49:33;;;;;;;;;;;;;;;18.98;46.91;100491.34;5036714;28;19978;-84
2021/12/29 11:52:09;;;;;;;;;;;;;;;18.98;47.40;100488.66;5036289;28;19943;-83
2021/12/29 11:54:46;;;;;;;;;;;;;;;18.98;48.20;100485.13;5034749;28;19921;-81
2021/12/29 11:57:14;;;;;;;;;;;;;;;18.99;49.55;100481.44;5037318;28;19932;-82
2021/12/29 11:59:41;;;;;;;;;;;;;;;18.98;49.57;100477.91;5019106;28;19928;-82
2021/12/29 12:02:09;;;;;;;;;;;;;;;18.98;50.17;100485.97;5036547;28;19921;-86
2021/12/29 12:04:36;;;;;;;;;;;;;;;18.98;50.49;100482.44;5036785;28;19928;-85
2021/12/29 12:07:05;;;;;;;;;;;;;;;18.98;51.05;100474.38;5019042;28;19921;-81
2021/12/29 12:09:49;;;;;;;;;;;;;;;18.97;51.14;100478.91;5035746;28;19921;-81
2021/12/29 12:12:16;;;;;;;;;;;;;;;18.96;51.42;100474.53;5035160;28;19921;-83
2021/12/29 12:14:46;;;;;;;;;;;;;;;18.97;51.57;100473.53;5036036;28;19932;-82
2021/12/29 12:17:18;;;;;;;;;;;;;;;18.97;51.80;100470.03;5017431;28;19925;-82
2021/12/29 12:19:57;;;;;;;;;;;;;;;18.97;52.18;100470.03;5018794;28;19944;-82
2021/12/29 12:22:26;;;;;;;;;;;;;;;18.97;52.45;100478.06;5035851;28;19928;-82
2021/12/29 12:25:01;;;;;;;;;;;;;;;18.98;53.72;100482.44;5036349;28;19928;-81
2021/12/29 12:27:36;;;;;;;;;;;;;;;18.98;53.00;100477.91;5018728;28;19921;-82
2021/12/29 12:30:03;;;;;;;;;;;;;;;18.98;53.26;100482.44;5018811;28;20016;-81
2021/12/29 12:32:49;;;;;;;;;;;;;;;18.98;53.13;100485.13;5036686;28;19921;-82
2021/12/29 12:35:29;;;;;;;;;;;;;;;18.99;53.31;100497.53;5018937;28;19921;-81
2021/12/29 12:37:56;;;;;;;;;;;;;;;18.98;52.98;100496.69;5018922;28;19921;-83
2021/12/29 12:40:28;;;;;;;;;;;;;;;18.97;53.19;100497.69;5036153;28;19932;-83
2021/12/29 12:42:58;;;;;;;;;;;;;;;18.98;53.20;100498.53;5036584;28;19921;-83
2021/12/29 12:45:25;;;;;;;;;;;;;;;18.98;52.81;100498.53;5018784;28;19921;-83
2021/12/29 12:48:12;;;;;;;;;;;;;;;18.99;52.83;100500.22;5035858;28;19951;-83
2021/12/29 12:50:41;;;;;;;;;;;;;;;18.99;52.32;100489.50;5035899;28;19921;-81
2021/12/29 12:53:08;;;;;;;;;;;;;;;18.99;52.52;100497.53;5017634;28;19921;-81